sensor_id;sensor_type;location;lat;lon;timestamp;P1;durP1;ratioP1;P2;durP2;ratioP2
39102;SDS011;24847;48.218;16.414;2022-08-19T00:01:10;4.95;;;2.80;;
39102;SDS011;24847;48.218;16.414;2022-08-19T00:06:15;5.93;;;2.28;;
39102;SDS011;24847;48.218;16.414;2022-08-19T00:11:18;5.43;;;2.72;;
39102;SDS011;24847;48.218;16.414;2022-08-19T00:16:20;7.55;;;2.78;;
39102;SDS011;24847;48.218;16.414;2022-08-19T00:21:25;6.13;;;2.58;;
39102;SDS011;24847;48.218;16.414;2022-08-19T00:26:28;5.63;;;2.20;;
39102;SDS011;24847;48.218;16.414;2022-08-19T00:31:31;5.28;;;2.50;;
39102;SDS011;24847;48.218;16.414;2022-08-19T00:36:35;6.03;;;2.38;;
39102;SDS011;24847;48.218;16.414;2022-08-19T00:41:38;5.65;;;2.40;;
39102;SDS011;24847;48.218;16.414;2022-08-19T00:46:43;5.10;;;3.05;;
39102;SDS011;24847;48.218;16.414;2022-08-19T00:51:50;4.80;;;2.47;;
39102;SDS011;24847;48.218;16.414;2022-08-19T00:56:56;3.10;;;1.90;;
39102;SDS011;24847;48.218;16.414;2022-08-19T01:02:00;4.03;;;2.30;;
39102;SDS011;24847;48.218;16.414;2022-08-19T01:07:04;5.35;;;2.10;;
39102;SDS011;24847;48.218;16.414;2022-08-19T01:12:06;5.68;;;2.30;;
39102;SDS011;24847;48.218;16.414;2022-08-19T01:17:10;4.60;;;2.30;;
39102;SDS011;24847;48.218;16.414;2022-08-19T01:22:16;3.08;;;2.15;;
39102;SDS011;24847;48.218;16.414;2022-08-19T01:27:38;3.35;;;2.05;;
39102;SDS011;24847;48.218;16.414;2022-08-19T01:32:41;4.10;;;2.65;;
39102;SDS011;24847;48.218;16.414;2022-08-19T01:37:46;4.95;;;2.33;;
39102;SDS011;24847;48.218;16.414;2022-08-19T01:42:53;7.57;;;2.33;;
39102;SDS011;24847;48.218;16.414;2022-08-19T01:47:55;6.70;;;1.90;;
39102;SDS011;24847;48.218;16.414;2022-08-19T01:53:00;6.75;;;2.03;;
39102;SDS011;24847;48.218;16.414;2022-08-19T01:58:05;2.45;;;1.63;;
39102;SDS011;24847;48.218;16.414;2022-08-19T02:03:09;3.17;;;1.90;;
39102;SDS011;24847;48.218;16.414;2022-08-19T02:08:13;4.93;;;2.15;;
39102;SDS011;24847;48.218;16.414;2022-08-19T02:13:16;4.07;;;1.83;;
39102;SDS011;24847;48.218;16.414;2022-08-19T02:18:18;5.95;;;2.22;;
39102;SDS011;24847;48.218;16.414;2022-08-19T02:23:22;5.20;;;2.08;;
39102;SDS011;24847;48.218;16.414;2022-08-19T02:28:24;4.60;;;2.15;;
39102;SDS011;24847;48.218;16.414;2022-08-19T02:33:26;5.50;;;2.13;;
39102;SDS011;24847;48.218;16.414;2022-08-19T02:38:30;3.03;;;1.80;;
39102;SDS011;24847;48.218;16.414;2022-08-19T02:43:33;5.15;;;2.47;;
39102;SDS011;24847;48.218;16.414;2022-08-19T02:48:36;5.47;;;2.20;;
39102;SDS011;24847;48.218;16.414;2022-08-19T02:53:40;5.82;;;2.17;;
39102;SDS011;24847;48.218;16.414;2022-08-19T02:58:42;5.47;;;2.20;;
39102;SDS011;24847;48.218;16.414;2022-08-19T03:03:45;4.22;;;2.28;;
39102;SDS011;24847;48.218;16.414;2022-08-19T03:08:52;4.25;;;2.10;;
39102;SDS011;24847;48.218;16.414;2022-08-19T03:13:57;3.65;;;2.00;;
39102;SDS011;24847;48.218;16.414;2022-08-19T03:19:01;3.70;;;2.45;;
39102;SDS011;24847;48.218;16.414;2022-08-19T03:24:05;5.05;;;2.20;;
39102;SDS011;24847;48.218;16.414;2022-08-19T03:29:10;6.88;;;2.72;;
39102;SDS011;24847;48.218;16.414;2022-08-19T03:34:13;4.93;;;2.75;;
39102;SDS011;24847;48.218;16.414;2022-08-19T03:39:19;4.75;;;2.50;;
39102;SDS011;24847;48.218;16.414;2022-08-19T03:44:23;6.13;;;2.80;;
39102;SDS011;24847;48.218;16.414;2022-08-19T03:49:26;5.13;;;2.85;;
39102;SDS011;24847;48.218;16.414;2022-08-19T03:54:35;5.15;;;2.60;;
39102;SDS011;24847;48.218;16.414;2022-08-19T03:59:38;4.43;;;2.20;;
39102;SDS011;24847;48.218;16.414;2022-08-19T04:04:42;4.57;;;2.60;;
39102;SDS011;24847;48.218;16.414;2022-08-19T04:09:46;5.50;;;3.00;;
39102;SDS011;24847;48.218;16.414;2022-08-19T04:14:49;9.23;;;4.93;;
39102;SDS011;24847;48.218;16.414;2022-08-19T04:19:51;7.05;;;2.88;;
39102;SDS011;24847;48.218;16.414;2022-08-19T04:24:54;4.18;;;2.33;;
39102;SDS011;24847;48.218;16.414;2022-08-19T04:29:57;4.38;;;2.60;;
39102;SDS011;24847;48.218;16.414;2022-08-19T04:34:59;7.28;;;2.60;;
39102;SDS011;24847;48.218;16.414;2022-08-19T04:40:04;6.63;;;2.38;;
39102;SDS011;24847;48.218;16.414;2022-08-19T04:45:25;5.70;;;2.67;;
39102;SDS011;24847;48.218;16.414;2022-08-19T04:50:28;5.07;;;2.53;;
39102;SDS011;24847;48.218;16.414;2022-08-19T04:55:31;8.32;;;2.83;;
39102;SDS011;24847;48.218;16.414;2022-08-19T05:00:37;7.82;;;2.90;;
39102;SDS011;24847;48.218;16.414;2022-08-19T05:05:41;8.55;;;2.80;;
39102;SDS011;24847;48.218;16.414;2022-08-19T05:10:45;7.22;;;3.55;;
39102;SDS011;24847;48.218;16.414;2022-08-19T05:15:53;9.23;;;3.67;;
39102;SDS011;24847;48.218;16.414;2022-08-19T05:20:56;4.93;;;3.23;;
39102;SDS011;24847;48.218;16.414;2022-08-19T05:26:17;7.20;;;2.83;;
39102;SDS011;24847;48.218;16.414;2022-08-19T05:31:19;4.97;;;3.25;;
39102;SDS011;24847;48.218;16.414;2022-08-19T05:36:22;4.55;;;3.97;;
39102;SDS011;24847;48.218;16.414;2022-08-19T05:41:26;4.70;;;4.20;;
39102;SDS011;24847;48.218;16.414;2022-08-19T05:46:31;5.60;;;4.65;;
39102;SDS011;24847;48.218;16.414;2022-08-19T05:51:35;7.25;;;4.95;;
39102;SDS011;24847;48.218;16.414;2022-08-19T05:56:39;11.23;;;5.43;;
39102;SDS011;24847;48.218;16.414;2022-08-19T06:01:44;5.38;;;4.95;;
39102;SDS011;24847;48.218;16.414;2022-08-19T06:06:51;7.10;;;5.05;;
39102;SDS011;24847;48.218;16.414;2022-08-19T06:11:56;5.95;;;4.93;;
39102;SDS011;24847;48.218;16.414;2022-08-19T06:17:02;5.90;;;4.75;;
39102;SDS011;24847;48.218;16.414;2022-08-19T06:22:05;6.07;;;4.97;;
39102;SDS011;24847;48.218;16.414;2022-08-19T06:27:09;5.65;;;5.03;;
39102;SDS011;24847;48.218;16.414;2022-08-19T06:32:11;4.88;;;4.38;;
39102;SDS011;24847;48.218;16.414;2022-08-19T06:37:16;4.95;;;4.55;;
39102;SDS011;24847;48.218;16.414;2022-08-19T06:42:20;6.80;;;4.60;;
39102;SDS011;24847;48.218;16.414;2022-08-19T06:47:22;4.80;;;4.40;;
39102;SDS011;24847;48.218;16.414;2022-08-19T06:52:24;5.95;;;4.80;;
39102;SDS011;24847;48.218;16.414;2022-08-19T06:57:28;4.97;;;4.47;;
39102;SDS011;24847;48.218;16.414;2022-08-19T07:02:32;4.93;;;4.38;;
39102;SDS011;24847;48.218;16.414;2022-08-19T07:07:38;5.13;;;4.63;;
39102;SDS011;24847;48.218;16.414;2022-08-19T07:12:44;4.35;;;3.95;;
39102;SDS011;24847;48.218;16.414;2022-08-19T07:17:49;4.55;;;4.13;;
39102;SDS011;24847;48.218;16.414;2022-08-19T07:22:51;4.30;;;3.90;;
39102;SDS011;24847;48.218;16.414;2022-08-19T07:27:55;5.75;;;3.97;;
39102;SDS011;24847;48.218;16.414;2022-08-19T07:32:57;4.68;;;3.92;;
39102;SDS011;24847;48.218;16.414;2022-08-19T07:37:59;6.63;;;4.40;;
39102;SDS011;24847;48.218;16.414;2022-08-19T07:43:05;6.07;;;3.95;;
39102;SDS011;24847;48.218;16.414;2022-08-19T07:48:07;7.13;;;4.50;;
39102;SDS011;24847;48.218;16.414;2022-08-19T07:53:09;4.95;;;4.18;;
39102;SDS011;24847;48.218;16.414;2022-08-19T07:58:14;4.85;;;4.10;;
39102;SDS011;24847;48.218;16.414;2022-08-19T08:03:20;5.13;;;3.78;;
39102;SDS011;24847;48.218;16.414;2022-08-19T08:08:43;3.72;;;3.25;;
39102;SDS011;24847;48.218;16.414;2022-08-19T08:14:04;5.30;;;3.50;;
39102;SDS011;24847;48.218;16.414;2022-08-19T08:19:07;4.03;;;3.42;;
39102;SDS011;24847;48.218;16.414;2022-08-19T08:24:09;6.93;;;3.30;;
39102;SDS011;24847;48.218;16.414;2022-08-19T08:29:14;4.43;;;3.10;;
39102;SDS011;24847;48.218;16.414;2022-08-19T08:34:16;5.45;;;3.42;;
39102;SDS011;24847;48.218;16.414;2022-08-19T08:39:19;4.53;;;3.17;;
39102;SDS011;24847;48.218;16.414;2022-08-19T08:44:27;5.47;;;3.22;;
39102;SDS011;24847;48.218;16.414;2022-08-19T08:49:41;4.32;;;3.45;;
39102;SDS011;24847;48.218;16.414;2022-08-19T08:54:52;6.18;;;3.35;;
39102;SDS011;24847;48.218;16.414;2022-08-19T09:00:00;5.95;;;3.30;;
39102;SDS011;24847;48.218;16.414;2022-08-19T09:05:09;4.25;;;3.08;;
39102;SDS011;24847;48.218;16.414;2022-08-19T09:10:15;4.18;;;3.10;;
39102;SDS011;24847;48.218;16.414;2022-08-19T09:15:40;7.53;;;3.90;;
39102;SDS011;24847;48.218;16.414;2022-08-19T09:20:47;4.43;;;3.33;;
39102;SDS011;24847;48.218;16.414;2022-08-19T09:25:50;7.88;;;3.15;;
39102;SDS011;24847;48.218;16.414;2022-08-19T09:30:54;3.88;;;3.15;;
39102;SDS011;24847;48.218;16.414;2022-08-19T09:36:03;3.45;;;2.80;;
39102;SDS011;24847;48.218;16.414;2022-08-19T09:41:10;3.45;;;3.15;;
39102;SDS011;24847;48.218;16.414;2022-08-19T09:46:16;4.85;;;3.00;;
39102;SDS011;24847;48.218;16.414;2022-08-19T09:51:18;7.35;;;2.90;;
39102;SDS011;24847;48.218;16.414;2022-08-19T09:56:23;6.97;;;3.10;;
39102;SDS011;24847;48.218;16.414;2022-08-19T10:01:27;4.40;;;3.10;;
39102;SDS011;24847;48.218;16.414;2022-08-19T10:06:32;5.03;;;2.90;;
39102;SDS011;24847;48.218;16.414;2022-08-19T10:11:34;4.25;;;2.97;;
39102;SDS011;24847;48.218;16.414;2022-08-19T10:16:39;6.43;;;2.92;;
39102;SDS011;24847;48.218;16.414;2022-08-19T10:21:42;5.00;;;3.05;;
39102;SDS011;24847;48.218;16.414;2022-08-19T10:26:44;4.13;;;2.95;;
39102;SDS011;24847;48.218;16.414;2022-08-19T10:31:49;6.05;;;3.30;;
39102;SDS011;24847;48.218;16.414;2022-08-19T10:36:52;5.63;;;3.10;;
39102;SDS011;24847;48.218;16.414;2022-08-19T10:41:54;3.83;;;3.10;;
39102;SDS011;24847;48.218;16.414;2022-08-19T10:46:59;6.57;;;3.30;;
39102;SDS011;24847;48.218;16.414;2022-08-19T10:52:01;4.75;;;3.00;;
39102;SDS011;24847;48.218;16.414;2022-08-19T10:57:21;5.38;;;3.45;;
39102;SDS011;24847;48.218;16.414;2022-08-19T11:02:30;5.97;;;3.23;;
39102;SDS011;24847;48.218;16.414;2022-08-19T11:07:33;6.32;;;4.05;;
39102;SDS011;24847;48.218;16.414;2022-08-19T11:12:36;6.50;;;3.42;;
39102;SDS011;24847;48.218;16.414;2022-08-19T11:17:41;7.38;;;3.92;;
39102;SDS011;24847;48.218;16.414;2022-08-19T11:22:44;6.80;;;3.53;;
39102;SDS011;24847;48.218;16.414;2022-08-19T11:27:46;8.20;;;3.35;;
39102;SDS011;24847;48.218;16.414;2022-08-19T11:32:52;7.05;;;3.30;;
39102;SDS011;24847;48.218;16.414;2022-08-19T11:37:54;8.75;;;3.63;;
39102;SDS011;24847;48.218;16.414;2022-08-19T11:42:58;9.85;;;3.03;;
39102;SDS011;24847;48.218;16.414;2022-08-19T11:48:01;7.90;;;3.20;;
39102;SDS011;24847;48.218;16.414;2022-08-19T11:53:04;6.38;;;2.38;;
39102;SDS011;24847;48.218;16.414;2022-08-19T11:58:06;9.55;;;3.30;;
39102;SDS011;24847;48.218;16.414;2022-08-19T12:03:10;11.52;;;3.75;;
39102;SDS011;24847;48.218;16.414;2022-08-19T12:08:13;7.82;;;3.70;;
39102;SDS011;24847;48.218;16.414;2022-08-19T12:13:16;7.32;;;3.40;;
39102;SDS011;24847;48.218;16.414;2022-08-19T12:18:20;7.25;;;3.38;;
39102;SDS011;24847;48.218;16.414;2022-08-19T12:23:22;8.05;;;3.45;;
39102;SDS011;24847;48.218;16.414;2022-08-19T12:28:25;9.75;;;3.17;;
39102;SDS011;24847;48.218;16.414;2022-08-19T12:33:28;6.30;;;3.25;;
39102;SDS011;24847;48.218;16.414;2022-08-19T12:38:32;7.10;;;3.45;;
39102;SDS011;24847;48.218;16.414;2022-08-19T12:43:35;6.90;;;3.60;;
39102;SDS011;24847;48.218;16.414;2022-08-19T12:48:40;7.90;;;3.38;;
39102;SDS011;24847;48.218;16.414;2022-08-19T12:53:45;3.97;;;2.78;;
39102;SDS011;24847;48.218;16.414;2022-08-19T12:58:49;6.35;;;3.00;;
39102;SDS011;24847;48.218;16.414;2022-08-19T13:03:53;5.15;;;3.03;;
39102;SDS011;24847;48.218;16.414;2022-08-19T13:08:55;4.85;;;2.60;;
39102;SDS011;24847;48.218;16.414;2022-08-19T13:13:58;6.35;;;3.00;;
39102;SDS011;24847;48.218;16.414;2022-08-19T13:19:02;5.43;;;3.05;;
39102;SDS011;24847;48.218;16.414;2022-08-19T13:24:05;7.20;;;3.10;;
39102;SDS011;24847;48.218;16.414;2022-08-19T13:29:07;6.50;;;2.92;;
39102;SDS011;24847;48.218;16.414;2022-08-19T13:34:30;5.82;;;2.60;;
39102;SDS011;24847;48.218;16.414;2022-08-19T13:39:35;5.75;;;2.58;;
39102;SDS011;24847;48.218;16.414;2022-08-19T13:44:37;5.45;;;2.25;;
39102;SDS011;24847;48.218;16.414;2022-08-19T13:49:41;8.25;;;2.75;;
39102;SDS011;24847;48.218;16.414;2022-08-19T13:54:43;7.25;;;2.85;;
39102;SDS011;24847;48.218;16.414;2022-08-19T13:59:45;7.18;;;2.97;;
39102;SDS011;24847;48.218;16.414;2022-08-19T14:04:49;4.05;;;2.45;;
39102;SDS011;24847;48.218;16.414;2022-08-19T14:09:51;6.18;;;2.78;;
39102;SDS011;24847;48.218;16.414;2022-08-19T14:14:53;8.25;;;3.17;;
39102;SDS011;24847;48.218;16.414;2022-08-19T14:19:57;6.53;;;3.13;;
39102;SDS011;24847;48.218;16.414;2022-08-19T14:25:07;6.78;;;3.95;;
39102;SDS011;24847;48.218;16.414;2022-08-19T14:30:14;6.90;;;4.40;;
39102;SDS011;24847;48.218;16.414;2022-08-19T14:35:21;6.30;;;3.10;;
39102;SDS011;24847;48.218;16.414;2022-08-19T14:40:25;5.78;;;2.85;;
39102;SDS011;24847;48.218;16.414;2022-08-19T14:45:29;8.45;;;2.90;;
39102;SDS011;24847;48.218;16.414;2022-08-19T14:50:35;6.85;;;2.85;;
39102;SDS011;24847;48.218;16.414;2022-08-19T14:55:39;7.88;;;2.97;;
39102;SDS011;24847;48.218;16.414;2022-08-19T15:00:43;5.90;;;2.53;;
39102;SDS011;24847;48.218;16.414;2022-08-19T15:05:47;4.30;;;2.35;;
39102;SDS011;24847;48.218;16.414;2022-08-19T15:10:49;5.13;;;2.33;;
39102;SDS011;24847;48.218;16.414;2022-08-19T15:15:51;3.90;;;1.98;;
39102;SDS011;24847;48.218;16.414;2022-08-19T15:20:55;5.35;;;2.00;;
39102;SDS011;24847;48.218;16.414;2022-08-19T15:25:58;3.90;;;2.40;;
39102;SDS011;24847;48.218;16.414;2022-08-19T15:31:00;5.18;;;2.20;;
39102;SDS011;24847;48.218;16.414;2022-08-19T15:36:04;5.97;;;2.50;;
39102;SDS011;24847;48.218;16.414;2022-08-19T15:41:13;7.65;;;2.20;;
39102;SDS011;24847;48.218;16.414;2022-08-19T15:46:26;6.18;;;2.40;;
39102;SDS011;24847;48.218;16.414;2022-08-19T15:51:33;5.07;;;1.80;;
39102;SDS011;24847;48.218;16.414;2022-08-19T15:56:37;6.40;;;2.50;;
39102;SDS011;24847;48.218;16.414;2022-08-19T16:01:57;4.80;;;1.90;;
39102;SDS011;24847;48.218;16.414;2022-08-19T16:07:18;5.88;;;2.05;;
39102;SDS011;24847;48.218;16.414;2022-08-19T16:12:20;7.85;;;2.17;;
39102;SDS011;24847;48.218;16.414;2022-08-19T16:17:26;7.47;;;1.98;;
39102;SDS011;24847;48.218;16.414;2022-08-19T16:22:30;4.97;;;2.10;;
39102;SDS011;24847;48.218;16.414;2022-08-19T16:27:33;4.72;;;2.25;;
39102;SDS011;24847;48.218;16.414;2022-08-19T16:32:36;5.72;;;2.10;;
39102;SDS011;24847;48.218;16.414;2022-08-19T16:37:45;8.82;;;1.95;;
39102;SDS011;24847;48.218;16.414;2022-08-19T16:42:48;4.55;;;2.05;;
39102;SDS011;24847;48.218;16.414;2022-08-19T16:47:50;5.80;;;1.95;;
39102;SDS011;24847;48.218;16.414;2022-08-19T16:52:54;5.78;;;1.80;;
39102;SDS011;24847;48.218;16.414;2022-08-19T16:57:59;5.00;;;1.75;;
39102;SDS011;24847;48.218;16.414;2022-08-19T17:03:04;7.32;;;1.90;;
39102;SDS011;24847;48.218;16.414;2022-08-19T17:08:11;4.28;;;1.92;;
39102;SDS011;24847;48.218;16.414;2022-08-19T17:13:16;8.55;;;2.10;;
39102;SDS011;24847;48.218;16.414;2022-08-19T17:18:18;5.00;;;1.95;;
39102;SDS011;24847;48.218;16.414;2022-08-19T17:23:23;7.35;;;1.88;;
39102;SDS011;24847;48.218;16.414;2022-08-19T17:28:26;5.15;;;1.73;;
39102;SDS011;24847;48.218;16.414;2022-08-19T17:33:30;6.78;;;1.88;;
39102;SDS011;24847;48.218;16.414;2022-08-19T17:38:33;7.60;;;2.20;;
39102;SDS011;24847;48.218;16.414;2022-08-19T17:43:37;7.07;;;3.20;;
39102;SDS011;24847;48.218;16.414;2022-08-19T17:48:39;7.15;;;2.35;;
39102;SDS011;24847;48.218;16.414;2022-08-19T17:53:43;8.48;;;2.20;;
39102;SDS011;24847;48.218;16.414;2022-08-19T17:58:46;8.60;;;2.33;;
39102;SDS011;24847;48.218;16.414;2022-08-19T18:03:48;6.78;;;2.05;;
39102;SDS011;24847;48.218;16.414;2022-08-19T18:08:51;6.30;;;2.08;;
39102;SDS011;24847;48.218;16.414;2022-08-19T18:13:54;8.63;;;2.60;;
39102;SDS011;24847;48.218;16.414;2022-08-19T18:18:56;6.60;;;2.22;;
39102;SDS011;24847;48.218;16.414;2022-08-19T18:24:00;5.15;;;2.03;;
39102;SDS011;24847;48.218;16.414;2022-08-19T18:29:03;8.20;;;2.28;;
39102;SDS011;24847;48.218;16.414;2022-08-19T18:34:05;7.43;;;2.20;;
39102;SDS011;24847;48.218;16.414;2022-08-19T18:39:10;5.22;;;2.45;;
39102;SDS011;24847;48.218;16.414;2022-08-19T18:44:30;9.30;;;2.22;;
39102;SDS011;24847;48.218;16.414;2022-08-19T18:49:49;9.20;;;3.00;;
39102;SDS011;24847;48.218;16.414;2022-08-19T18:54:53;5.95;;;2.53;;
39102;SDS011;24847;48.218;16.414;2022-08-19T18:59:55;5.82;;;2.67;;
39102;SDS011;24847;48.218;16.414;2022-08-19T19:04:57;5.53;;;2.15;;
39102;SDS011;24847;48.218;16.414;2022-08-19T19:10:01;6.55;;;2.63;;
39102;SDS011;24847;48.218;16.414;2022-08-19T19:15:05;7.63;;;2.25;;
39102;SDS011;24847;48.218;16.414;2022-08-19T19:20:08;8.25;;;2.15;;
39102;SDS011;24847;48.218;16.414;2022-08-19T19:25:12;5.28;;;2.58;;
39102;SDS011;24847;48.218;16.414;2022-08-19T19:30:14;9.35;;;2.50;;
39102;SDS011;24847;48.218;16.414;2022-08-19T19:35:16;6.43;;;2.55;;
39102;SDS011;24847;48.218;16.414;2022-08-19T19:40:20;6.50;;;2.63;;
39102;SDS011;24847;48.218;16.414;2022-08-19T19:45:22;12.95;;;8.10;;
39102;SDS011;24847;48.218;16.414;2022-08-19T19:50:25;10.45;;;3.20;;
39102;SDS011;24847;48.218;16.414;2022-08-19T19:55:30;6.38;;;2.67;;
39102;SDS011;24847;48.218;16.414;2022-08-19T20:00:33;6.20;;;2.67;;
39102;SDS011;24847;48.218;16.414;2022-08-19T20:05:36;5.25;;;2.53;;
39102;SDS011;24847;48.218;16.414;2022-08-19T20:10:40;6.22;;;2.65;;
39102;SDS011;24847;48.218;16.414;2022-08-19T20:15:44;6.30;;;2.45;;
39102;SDS011;24847;48.218;16.414;2022-08-19T20:20:47;6.50;;;2.08;;
39102;SDS011;24847;48.218;16.414;2022-08-19T20:25:52;5.43;;;1.90;;
39102;SDS011;24847;48.218;16.414;2022-08-19T20:30:54;5.35;;;1.98;;
39102;SDS011;24847;48.218;16.414;2022-08-19T20:35:57;6.00;;;1.88;;
39102;SDS011;24847;48.218;16.414;2022-08-19T20:41:01;8.82;;;2.33;;
39102;SDS011;24847;48.218;16.414;2022-08-19T20:46:04;10.63;;;3.15;;
39102;SDS011;24847;48.218;16.414;2022-08-19T20:51:06;11.48;;;6.28;;
39102;SDS011;24847;48.218;16.414;2022-08-19T20:56:11;9.45;;;3.25;;
39102;SDS011;24847;48.218;16.414;2022-08-19T21:01:13;8.43;;;2.53;;
39102;SDS011;24847;48.218;16.414;2022-08-19T21:06:15;4.88;;;2.20;;
39102;SDS011;24847;48.218;16.414;2022-08-19T21:11:18;7.63;;;2.45;;
39102;SDS011;24847;48.218;16.414;2022-08-19T21:16:21;5.60;;;2.45;;
39102;SDS011;24847;48.218;16.414;2022-08-19T21:21:24;6.05;;;2.58;;
39102;SDS011;24847;48.218;16.414;2022-08-19T21:26:28;7.03;;;2.63;;
39102;SDS011;24847;48.218;16.414;2022-08-19T21:31:30;15.32;;;12.18;;
39102;SDS011;24847;48.218;16.414;2022-08-19T21:36:33;12.25;;;4.43;;
39102;SDS011;24847;48.218;16.414;2022-08-19T21:41:37;6.68;;;2.72;;
39102;SDS011;24847;48.218;16.414;2022-08-19T21:46:39;5.32;;;2.53;;
39102;SDS011;24847;48.218;16.414;2022-08-19T21:51:42;3.05;;;1.42;;
39102;SDS011;24847;48.218;16.414;2022-08-19T21:56:46;2.55;;;1.50;;
39102;SDS011;24847;48.218;16.414;2022-08-19T22:01:49;1.65;;;1.17;;
39102;SDS011;24847;48.218;16.414;2022-08-19T22:06:52;2.10;;;1.30;;
39102;SDS011;24847;48.218;16.414;2022-08-19T22:11:56;2.08;;;1.50;;
39102;SDS011;24847;48.218;16.414;2022-08-19T22:16:58;2.35;;;1.52;;
39102;SDS011;24847;48.218;16.414;2022-08-19T22:22:00;1.70;;;1.10;;
39102;SDS011;24847;48.218;16.414;2022-08-19T22:27:04;1.70;;;0.85;;
39102;SDS011;24847;48.218;16.414;2022-08-19T22:32:06;1.17;;;0.93;;
39102;SDS011;24847;48.218;16.414;2022-08-19T22:37:09;1.90;;;0.98;;
39102;SDS011;24847;48.218;16.414;2022-08-19T22:42:12;1.85;;;1.02;;
39102;SDS011;24847;48.218;16.414;2022-08-19T22:47:19;1.87;;;1.10;;
39102;SDS011;24847;48.218;16.414;2022-08-19T22:52:22;1.23;;;1.00;;
39102;SDS011;24847;48.218;16.414;2022-08-19T22:57:25;1.85;;;1.30;;
39102;SDS011;24847;48.218;16.414;2022-08-19T23:02:29;2.33;;;1.30;;
39102;SDS011;24847;48.218;16.414;2022-08-19T23:07:37;2.42;;;1.20;;
39102;SDS011;24847;48.218;16.414;2022-08-19T23:12:42;1.17;;;1.02;;
39102;SDS011;24847;48.218;16.414;2022-08-19T23:17:48;1.20;;;1.10;;
39102;SDS011;24847;48.218;16.414;2022-08-19T23:22:51;1.67;;;1.20;;
39102;SDS011;24847;48.218;16.414;2022-08-19T23:27:56;2.28;;;1.05;;
39102;SDS011;24847;48.218;16.414;2022-08-19T23:33:17;1.80;;;1.70;;
39102;SDS011;24847;48.218;16.414;2022-08-19T23:38:24;2.28;;;1.85;;
39102;SDS011;24847;48.218;16.414;2022-08-19T23:43:29;2.25;;;1.70;;
39102;SDS011;24847;48.218;16.414;2022-08-19T23:48:32;2.33;;;2.13;;
39102;SDS011;24847;48.218;16.414;2022-08-19T23:53:36;2.33;;;2.00;;
39102;SDS011;24847;48.218;16.414;2022-08-19T23:58:41;2.28;;;1.90;;
